createdAt,value
2022-09-04T00:02:05.762Z,99.90
2022-09-04T00:05:07.062Z,99.90
2022-09-04T00:08:04.136Z,99.90
2022-09-04T00:10:40.399Z,99.90
2022-09-04T00:13:22.560Z,99.90
2022-09-04T00:16:05.235Z,99.90
2022-09-04T00:18:49.262Z,99.90
2022-09-04T00:21:30.970Z,99.90
2022-09-04T00:24:02.121Z,99.90
2022-09-04T00:27:01.357Z,99.90
2022-09-04T00:29:44.509Z,99.90
2022-09-04T00:32:18.849Z,99.90
2022-09-04T00:34:58.227Z,99.90
2022-09-04T00:37:32.764Z,99.90
2022-09-04T00:40:14.625Z,99.90
2022-09-04T00:43:28.864Z,99.90
2022-09-04T00:46:30.405Z,99.90
2022-09-04T00:49:20.203Z,99.90
2022-09-04T00:52:09.856Z,99.90
2022-09-04T00:55:06.334Z,99.90
2022-09-04T00:57:48.542Z,99.90
2022-09-04T01:00:18.597Z,99.90
2022-09-04T01:03:07.004Z,99.90
2022-09-04T01:05:40.400Z,99.90
2022-09-04T01:08:16.712Z,99.90
2022-09-04T01:10:49.361Z,99.90
2022-09-04T01:13:36.157Z,99.90
2022-09-04T01:16:17.456Z,99.90
2022-09-04T01:19:13.933Z,99.90
2022-09-04T01:21:55.640Z,99.90
2022-09-04T01:25:03.145Z,99.90
2022-09-04T01:27:29.820Z,99.90
2022-09-04T01:30:07.836Z,99.90
2022-09-04T01:33:01.501Z,99.90
2022-09-04T01:35:52.538Z,99.90
2022-09-04T01:38:45.065Z,99.90
2022-09-04T01:41:20.352Z,99.90
2022-09-04T01:43:47.641Z,99.90
2022-09-04T01:46:58.154Z,99.90
2022-09-04T01:49:29.952Z,99.90
2022-09-04T01:51:56.601Z,99.90
2022-09-04T01:54:45.785Z,99.90
2022-09-04T01:57:27.547Z,99.90
2022-09-04T02:00:10.131Z,99.90
2022-09-04T02:02:54.497Z,99.90
2022-09-04T02:05:48.528Z,99.90
2022-09-04T02:08:35.728Z,99.90
2022-09-04T02:11:12.715Z,99.90
2022-09-04T02:14:10.110Z,99.90
2022-09-04T02:16:56.287Z,99.90
2022-09-04T02:19:57.887Z,99.90
2022-09-04T02:22:53.199Z,99.90
2022-09-04T02:25:45.072Z,99.90
2022-09-04T02:28:30.817Z,99.90
2022-09-04T02:31:14.592Z,99.90
2022-09-04T02:33:55.005Z,99.90
2022-09-04T02:36:51.405Z,99.90
2022-09-04T02:39:39.645Z,99.90
2022-09-04T02:42:18.117Z,99.90
2022-09-04T02:45:00.243Z,99.90
2022-09-04T02:47:53.321Z,99.90
2022-09-04T02:50:38.463Z,99.90
2022-09-04T02:53:56.723Z,99.90
2022-09-04T02:56:39.744Z,99.90
2022-09-04T02:59:42.905Z,99.90
2022-09-04T03:02:25.564Z,99.90
2022-09-04T03:05:09.515Z,99.90
2022-09-04T03:07:41.249Z,99.90
2022-09-04T03:10:11.765Z,99.90
2022-09-04T03:13:02.466Z,99.90
2022-09-04T03:15:39.997Z,99.90
2022-09-04T03:18:06.767Z,99.90
2022-09-04T03:20:54.282Z,99.90
2022-09-04T03:23:42.354Z,99.90
2022-09-04T03:26:35.459Z,99.90
2022-09-04T03:29:26.894Z,99.90
2022-09-04T03:32:35.108Z,99.90
2022-09-04T03:35:30.926Z,99.90
2022-09-04T03:38:12.595Z,99.90
2022-09-04T03:40:46.760Z,99.90
2022-09-04T03:43:35.552Z,99.90
2022-09-04T03:46:25.181Z,99.90
2022-09-04T03:49:20.505Z,99.90
2022-09-04T03:52:06.738Z,99.90
2022-09-04T03:54:48.242Z,99.90
2022-09-04T03:57:36.140Z,99.90
2022-09-04T04:00:13.218Z,99.90
2022-09-04T04:03:02.426Z,99.90
2022-09-04T04:05:40.617Z,99.90
2022-09-04T04:08:30.626Z,99.90
2022-09-04T04:11:35.264Z,99.90
2022-09-04T04:14:27.156Z,99.90
2022-09-04T04:17:12.627Z,99.90
2022-09-04T04:20:04.236Z,99.90
2022-09-04T04:23:08.566Z,99.90
2022-09-04T04:25:43.010Z,99.90
2022-09-04T04:28:27.808Z,99.90
2022-09-04T04:31:02.392Z,99.90
2022-09-04T04:33:51.731Z,99.90
2022-09-04T04:36:47.842Z,99.90
2022-09-04T04:39:38.454Z,99.90
2022-09-04T04:42:17.233Z,99.90
2022-09-04T04:45:36.338Z,99.90
2022-09-04T04:48:11.220Z,99.90
2022-09-04T04:51:02.762Z,99.90
2022-09-04T04:53:57.044Z,99.90
2022-09-04T04:56:45.966Z,99.90
2022-09-04T04:59:40.034Z,99.90
2022-09-04T05:02:21.338Z,99.90
2022-09-04T05:05:13.484Z,99.90
2022-09-04T05:08:14.904Z,99.90
2022-09-04T05:11:07.194Z,99.90
2022-09-04T05:14:05.889Z,99.90
2022-09-04T05:16:55.964Z,99.90
2022-09-04T05:19:32.233Z,99.90
2022-09-04T05:22:36.459Z,99.90
2022-09-04T05:25:25.573Z,99.90
2022-09-04T05:28:17.712Z,99.90
2022-09-04T05:30:56.474Z,99.90
2022-09-04T05:33:49.450Z,99.90
2022-09-04T05:36:23.249Z,99.90
2022-09-04T05:39:03.490Z,99.90
2022-09-04T05:42:08.077Z,99.90
2022-09-04T05:44:50.425Z,99.90
2022-09-04T05:47:34.617Z,99.90
2022-09-04T05:50:44.575Z,99.90
2022-09-04T05:53:42.113Z,99.90
2022-09-04T05:56:17.997Z,99.90
2022-09-04T05:58:49.652Z,99.90
2022-09-04T06:01:38.968Z,99.90
2022-09-04T06:04:42.565Z,99.90
2022-09-04T06:07:16.248Z,99.90
2022-09-04T06:10:03.738Z,99.90
2022-09-04T06:12:53.698Z,99.90
2022-09-04T06:15:42.836Z,99.90
2022-09-04T06:18:30.712Z,99.90
2022-09-04T06:21:31.263Z,99.90
2022-09-04T06:24:10.004Z,99.90
2022-09-04T06:27:04.148Z,99.90
2022-09-04T06:29:54.227Z,99.90
2022-09-04T06:32:42.853Z,99.90
2022-09-04T06:35:28.322Z,99.90
2022-09-04T06:38:32.841Z,99.90
2022-09-04T06:41:08.898Z,99.90
2022-09-04T06:44:13.354Z,99.90
2022-09-04T06:46:53.454Z,99.90
2022-09-04T06:49:59.456Z,99.90
2022-09-04T06:52:46.057Z,99.90
2022-09-04T06:55:24.106Z,99.90
2022-09-04T06:58:13.753Z,99.90
2022-09-04T07:01:40.357Z,99.90
2022-09-04T07:04:25.932Z,99.90
2022-09-04T07:07:10.190Z,99.90
2022-09-04T07:09:52.301Z,99.90
2022-09-04T07:12:42.447Z,99.90
2022-09-04T07:15:34.211Z,99.90
2022-09-04T07:18:15.849Z,99.90
2022-09-04T07:21:33.894Z,99.90
2022-09-04T07:24:19.499Z,99.90
2022-09-04T07:27:04.057Z,99.90
2022-09-04T07:30:05.069Z,99.90
2022-09-04T07:33:04.730Z,99.90
2022-09-04T07:35:51.602Z,99.90
2022-09-04T07:38:38.338Z,99.90
2022-09-04T07:41:21.625Z,99.90
2022-09-04T07:44:13.739Z,99.90
2022-09-04T07:47:12.702Z,99.90
2022-09-04T07:49:52.650Z,99.90
2022-09-04T07:52:35.016Z,99.90
2022-09-04T07:55:23.360Z,99.90
2022-09-04T07:58:24.708Z,99.90
2022-09-04T08:01:12.583Z,99.90
2022-09-04T08:03:54.343Z,99.90
2022-09-04T08:06:48.430Z,99.90
2022-09-04T08:09:42.365Z,99.90
2022-09-04T08:12:20.757Z,99.90
2022-09-04T08:15:03.300Z,99.90
2022-09-04T08:17:54.218Z,99.90
2022-09-04T08:20:42.020Z,99.90
2022-09-04T08:23:33.360Z,99.90
2022-09-04T08:26:34.835Z,99.90
2022-09-04T08:29:22.438Z,99.90
2022-09-04T08:32:28.573Z,99.90
2022-09-04T08:35:39.610Z,99.90
2022-09-04T08:38:35.081Z,99.90
2022-09-04T08:41:26.103Z,99.90
2022-09-04T08:44:23.625Z,99.90
2022-09-04T08:47:28.409Z,99.90
2022-09-04T08:50:12.449Z,99.90
2022-09-04T08:53:07.169Z,99.90
2022-09-04T08:55:55.388Z,99.90
2022-09-04T08:58:34.485Z,99.90
2022-09-04T09:01:29.189Z,99.90
2022-09-04T09:04:26.986Z,99.90
2022-09-04T09:07:33.203Z,99.90
2022-09-04T09:10:35.310Z,99.90
2022-09-04T09:13:47.531Z,99.90
2022-09-04T09:16:20.314Z,99.90
2022-09-04T09:19:10.717Z,99.90
2022-09-04T09:21:43.400Z,99.90
2022-09-04T09:24:21.883Z,99.90
2022-09-04T09:27:14.775Z,99.90
2022-09-04T09:30:07.998Z,99.90
2022-09-04T09:33:06.860Z,99.90
2022-09-04T09:36:01.996Z,99.90
2022-09-04T09:39:19.909Z,99.90
2022-09-04T09:42:15.325Z,99.90
2022-09-04T09:45:20.241Z,99.90
2022-09-04T09:48:18.630Z,99.90
2022-09-04T09:51:22.849Z,99.90
2022-09-04T09:54:23.045Z,99.90
2022-09-04T09:57:07.875Z,99.90
2022-09-04T10:00:05.860Z,99.90
2022-09-04T10:02:35.439Z,99.90
2022-09-04T10:05:18.326Z,99.90
2022-09-04T10:07:59.874Z,99.90
2022-09-04T10:11:07.718Z,99.90
2022-09-04T10:13:58.629Z,99.90
2022-09-04T10:16:47.797Z,99.90
2022-09-04T10:20:04.741Z,99.90
2022-09-04T10:22:43.389Z,99.90
2022-09-04T10:25:38.508Z,99.90
2022-09-04T10:28:40.838Z,99.90
2022-09-04T10:31:38.348Z,99.90
2022-09-04T10:34:29.121Z,99.90
2022-09-04T10:37:27.912Z,99.90
2022-09-04T10:40:46.127Z,99.90
2022-09-04T10:43:44.706Z,99.90
2022-09-04T10:46:32.320Z,99.90
2022-09-04T10:49:30.408Z,99.90
2022-09-04T10:52:24.884Z,99.90
2022-09-04T10:55:20.818Z,99.90
2022-09-04T10:58:10.570Z,99.90
2022-09-04T11:00:50.524Z,99.90
2022-09-04T11:03:38.115Z,99.90
2022-09-04T11:06:29.553Z,99.90
2022-09-04T11:09:15.185Z,99.90
2022-09-04T11:11:52.933Z,99.90
2022-09-04T11:14:46.028Z,99.90
2022-09-04T11:17:19.788Z,99.90
2022-09-04T11:20:36.418Z,99.90
2022-09-04T11:23:29.181Z,99.90
2022-09-04T11:26:26.353Z,99.90
2022-09-04T11:29:21.724Z,99.90
2022-09-04T11:32:27.177Z,99.90
2022-09-04T11:35:23.871Z,99.90
2022-09-04T11:38:24.297Z,99.90
2022-09-04T11:41:20.972Z,99.90
2022-09-04T11:44:26.084Z,99.90
2022-09-04T11:47:23.381Z,99.90
2022-09-04T11:50:29.145Z,99.90
2022-09-04T11:53:24.104Z,99.90
2022-09-04T11:56:27.050Z,99.90
2022-09-04T11:59:29.308Z,99.90
2022-09-04T12:02:04.801Z,99.90
2022-09-04T12:05:07.390Z,99.90
2022-09-04T12:07:55.427Z,99.90
2022-09-04T12:10:49.626Z,99.90
2022-09-04T12:13:55.232Z,99.90
2022-09-04T12:17:08.462Z,99.90
2022-09-04T12:19:55.944Z,99.90
2022-09-04T12:22:44.995Z,99.90
2022-09-04T12:25:38.846Z,99.90
2022-09-04T12:28:47.941Z,99.90
2022-09-04T12:31:36.397Z,99.90
2022-09-04T12:34:23.218Z,99.90
2022-09-04T12:37:11.419Z,99.90
2022-09-04T12:40:02.653Z,99.90
2022-09-04T12:43:16.632Z,99.90
2022-09-04T12:46:16.743Z,99.90
2022-09-04T12:49:02.033Z,99.90
2022-09-04T12:51:42.126Z,99.90
2022-09-04T12:54:27.010Z,99.90
2022-09-04T12:57:22.525Z,99.90
2022-09-04T13:00:10.783Z,99.90
2022-09-04T13:02:49.533Z,99.90
2022-09-04T13:05:31.812Z,99.90
2022-09-04T13:08:29.022Z,99.90
2022-09-04T13:11:16.934Z,99.90
2022-09-04T13:14:28.944Z,99.90
2022-09-04T13:17:26.427Z,99.90
2022-09-04T13:20:43.933Z,99.90
2022-09-04T13:23:39.586Z,99.90
2022-09-04T13:26:29.750Z,99.90
2022-09-04T13:29:08.524Z,99.90
2022-09-04T13:31:59.519Z,99.90
2022-09-04T13:34:54.973Z,99.90
2022-09-04T13:37:34.544Z,99.90
2022-09-04T13:40:20.832Z,99.90
2022-09-04T13:43:25.247Z,99.90
2022-09-04T13:46:05.982Z,99.90
2022-09-04T13:48:41.368Z,99.90
2022-09-04T13:51:23.219Z,99.60
2022-09-04T13:54:12.006Z,99.90
2022-09-04T13:56:52.624Z,99.30
2022-09-04T13:59:22.425Z,99.00
2022-09-04T14:01:51.337Z,99.90
2022-09-04T14:04:26.209Z,99.90
2022-09-04T14:07:06.249Z,99.90
2022-09-04T14:09:37.201Z,99.50
2022-09-04T14:12:31.629Z,99.90
2022-09-04T14:15:27.152Z,99.90
2022-09-04T14:18:04.793Z,99.50
2022-09-04T14:20:43.143Z,99.90
2022-09-04T14:23:45.936Z,99.90
2022-09-04T14:26:28.982Z,99.90
2022-09-04T14:29:11.577Z,99.90
2022-09-04T14:31:46.686Z,99.40
2022-09-04T14:34:16.160Z,99.20
2022-09-04T14:37:01.733Z,99.90
2022-09-04T14:40:25.886Z,99.30
2022-09-04T14:43:08.584Z,98.30
2022-09-04T14:46:06.822Z,98.20
2022-09-04T14:48:40.639Z,98.30
2022-09-04T14:51:17.312Z,98.30
2022-09-04T14:53:55.950Z,97.60
2022-09-04T14:56:29.187Z,97.80
2022-09-04T14:59:15.638Z,96.80
2022-09-04T15:02:10.603Z,97.00
2022-09-04T15:05:20.537Z,97.00
2022-09-04T15:08:13.035Z,96.40
2022-09-04T15:10:54.337Z,96.40
2022-09-04T15:13:33.055Z,96.40
2022-09-04T15:16:21.022Z,95.30
2022-09-04T15:18:55.328Z,95.50
2022-09-04T15:21:33.701Z,94.90
2022-09-04T15:24:14.206Z,95.50
2022-09-04T15:27:19.929Z,95.60
2022-09-04T15:30:02.160Z,94.40
2022-09-04T15:32:33.648Z,95.20
2022-09-04T15:35:32.811Z,95.30
2022-09-04T15:38:21.100Z,94.90
2022-09-04T15:41:14.901Z,95.30
2022-09-04T15:43:41.026Z,95.40
2022-09-04T15:46:19.952Z,95.10
2022-09-04T15:49:08.889Z,95.30
2022-09-04T15:52:10.423Z,94.40
2022-09-04T15:54:39.872Z,95.00
2022-09-04T15:57:20.839Z,95.00
2022-09-04T16:00:17.184Z,95.30
2022-09-04T16:02:56.741Z,95.20
2022-09-04T16:05:44.992Z,95.10
2022-09-04T16:08:24.620Z,95.10
2022-09-04T16:11:03.154Z,95.40
2022-09-04T16:13:52.328Z,96.40
2022-09-04T16:16:34.423Z,96.70
2022-09-04T16:19:23.666Z,96.70
2022-09-04T16:22:00.350Z,96.20
2022-09-04T16:24:35.656Z,96.70
2022-09-04T16:27:09.516Z,96.80
2022-09-04T16:29:47.062Z,96.50
2022-09-04T16:32:21.569Z,96.20
2022-09-04T16:34:53.281Z,96.80
2022-09-04T16:37:35.035Z,97.20
2022-09-04T16:40:40.348Z,97.10
2022-09-04T16:43:16.399Z,97.00
2022-09-04T16:45:57.624Z,97.40
2022-09-04T16:48:34.720Z,97.30
2022-09-04T16:51:39.792Z,98.00
2022-09-04T16:54:19.392Z,97.60
2022-09-04T16:57:21.550Z,98.40
2022-09-04T16:59:53.065Z,99.10
2022-09-04T17:02:50.741Z,99.00
2022-09-04T17:05:39.308Z,99.80
2022-09-04T17:08:34.936Z,99.90
2022-09-04T17:11:44.472Z,99.90
2022-09-04T17:14:40.424Z,99.90
2022-09-04T17:17:30.148Z,99.90
2022-09-04T17:20:07.132Z,99.90
2022-09-04T17:28:57.069Z,99.90
2022-09-04T17:29:07.710Z,99.90
2022-09-04T17:29:29.660Z,99.90
2022-09-04T17:31:53.026Z,99.90
2022-09-04T17:40:34.778Z,99.90
2022-09-04T17:40:56.730Z,99.90
2022-09-04T17:43:58.509Z,99.90
2022-09-04T17:46:38.883Z,99.90
2022-09-04T17:49:20.812Z,99.90
2022-09-04T17:51:51.354Z,99.90
2022-09-04T17:54:27.071Z,99.90
2022-09-04T17:57:03.645Z,99.90
2022-09-04T18:00:00.560Z,99.90
2022-09-04T18:02:53.571Z,99.90
2022-09-04T18:05:33.650Z,99.90
2022-09-04T18:08:11.902Z,99.90
2022-09-04T18:10:59.298Z,99.90
2022-09-04T18:14:02.383Z,99.90
2022-09-04T18:16:53.233Z,99.90
2022-09-04T18:19:44.954Z,99.90
2022-09-04T18:22:33.601Z,99.90
2022-09-04T18:25:22.462Z,99.90
2022-09-04T18:28:12.925Z,99.90
2022-09-04T18:37:08.250Z,99.90
2022-09-04T18:37:20.963Z,99.90
2022-09-04T18:37:27.100Z,99.90
2022-09-04T18:39:50.544Z,99.90
2022-09-04T18:50:23.227Z,99.90
2022-09-04T18:50:36.444Z,99.90
2022-09-04T18:50:51.326Z,99.90
2022-09-04T18:51:30.541Z,99.90
2022-09-04T18:54:06.581Z,99.90
2022-09-04T18:56:43.922Z,99.90
2022-09-04T18:59:26.762Z,99.90
2022-09-04T19:02:19.560Z,99.90
2022-09-04T19:04:58.953Z,99.90
2022-09-04T19:07:35.198Z,99.90
2022-09-04T19:10:25.629Z,99.90
2022-09-04T19:12:52.446Z,99.90
2022-09-04T19:15:36.729Z,99.90
2022-09-04T19:18:43.494Z,99.90
2022-09-04T19:21:14.534Z,99.90
2022-09-04T19:23:47.344Z,99.90
2022-09-04T19:27:01.097Z,99.90
2022-09-04T19:30:18.174Z,99.90
2022-09-04T19:33:03.165Z,99.90
2022-09-04T19:35:47.357Z,99.90
2022-09-04T19:43:58.499Z,99.90
2022-09-04T19:46:03.963Z,99.90
2022-09-04T19:46:18.034Z,99.90
2022-09-04T19:47:32.030Z,99.90
2022-09-04T19:53:23.264Z,99.90
2022-09-04T19:53:37.893Z,99.90
2022-09-04T19:56:15.065Z,99.90
2022-09-04T19:58:51.650Z,99.90
2022-09-04T20:01:29.249Z,99.90
2022-09-04T20:04:08.623Z,99.90
2022-09-04T20:06:45.976Z,99.90
2022-09-04T20:09:33.180Z,99.90
2022-09-04T20:12:17.812Z,99.90
2022-09-04T20:14:51.306Z,99.90
2022-09-04T20:17:38.088Z,99.90
2022-09-04T20:20:16.013Z,99.90
2022-09-04T20:22:57.638Z,99.90
2022-09-04T20:25:30.933Z,99.90
2022-09-04T20:28:25.100Z,99.90
2022-09-04T20:31:36.712Z,99.90
2022-09-04T20:34:43.405Z,99.90
2022-09-04T20:37:22.570Z,99.90
2022-09-04T20:40:19.153Z,99.90
2022-09-04T20:43:03.758Z,99.90
2022-09-04T20:49:52.410Z,99.90
2022-09-04T20:52:52.984Z,99.90
2022-09-04T20:52:58.595Z,99.90
2022-09-04T20:55:02.361Z,99.90
2022-09-04T21:02:11.121Z,99.90
2022-09-04T21:03:19.263Z,99.90
2022-09-04T21:04:17.170Z,99.90
2022-09-04T21:06:58.023Z,99.90
2022-09-04T21:09:55.349Z,99.90
2022-09-04T21:12:35.313Z,99.90
2022-09-04T21:15:13.619Z,99.90
2022-09-04T21:18:14.334Z,99.90
2022-09-04T21:21:04.365Z,99.90
2022-09-04T21:23:51.230Z,99.90
2022-09-04T21:27:14.185Z,99.90
2022-09-04T21:29:49.527Z,99.90
2022-09-04T21:32:28.474Z,99.90
2022-09-04T21:35:15.517Z,99.90
2022-09-04T21:37:57.294Z,99.90
2022-09-04T21:40:50.124Z,99.90
2022-09-04T21:43:35.760Z,99.90
2022-09-04T21:46:20.759Z,99.90
2022-09-04T21:49:00.189Z,99.90
2022-09-04T21:52:00.218Z,99.90
2022-09-04T21:56:38.067Z,99.90
2022-09-04T22:02:29.105Z,99.90
2022-09-04T22:02:41.128Z,99.90
2022-09-04T22:04:42.417Z,99.90
2022-09-04T22:11:06.649Z,99.90
2022-09-04T22:13:29.246Z,99.90
2022-09-04T22:13:49.315Z,99.90
2022-09-04T22:16:36.555Z,99.90
2022-09-04T22:19:33.999Z,99.90
2022-09-04T22:22:33.645Z,99.90
2022-09-04T22:25:30.481Z,99.90
2022-09-04T22:28:25.780Z,99.90
2022-09-04T22:31:11.094Z,99.90
2022-09-04T22:34:17.644Z,99.90
2022-09-04T22:37:12.122Z,99.90
2022-09-04T22:40:27.407Z,99.90
2022-09-04T22:43:46.638Z,99.90
2022-09-04T22:47:20.551Z,99.90
2022-09-04T22:50:19.812Z,99.90
2022-09-04T22:53:16.891Z,99.90
2022-09-04T22:56:23.597Z,99.90
2022-09-04T22:59:26.784Z,99.90
2022-09-04T23:02:20.428Z,99.90
2022-09-04T23:05:23.629Z,99.90
2022-09-04T23:11:09.658Z,99.90
2022-09-04T23:13:48.669Z,99.90
2022-09-04T23:14:35.501Z,99.90
2022-09-04T23:17:35.872Z,99.90
2022-09-04T23:26:12.427Z,99.90
2022-09-04T23:26:52.824Z,99.90
2022-09-04T23:26:59.278Z,99.90
2022-09-04T23:29:26.800Z,99.90
2022-09-04T23:32:22.198Z,99.90
2022-09-04T23:35:14.181Z,99.90
2022-09-04T23:38:00.954Z,99.90
2022-09-04T23:40:44.457Z,99.90
2022-09-04T23:43:26.220Z,99.90
2022-09-04T23:46:17.940Z,99.90
2022-09-04T23:49:27.349Z,99.90
2022-09-04T23:52:04.856Z,99.90
2022-09-04T23:54:43.646Z,99.90
2022-09-04T23:57:33.452Z,99.90
